Terminal Aerodrome Forecast
Issued by NWS Flagstaff, AZ

Home | Current Version | Previous Version | Text Only | Print | Product List | Glossary On
Versions: 1 2 3 4 5 6 7 8 9 10 11 12 13 14
299
FTUS45 KFGZ 252002 AAB
TAFINW
TAF AMD
KINW 252002Z 2520/2618 20018G28KT P6SM SKC
     FM260300 18008KT P6SM SKC
     FM261200 20010KT P6SM BKN050=

USA.gov is the U.S. government's official web portal to all federal, state and local government web resources and services.